createdAt,value
2018-09-17T00:00:10.234Z,7.97
2018-09-17T00:01:16.468Z,6.90
2018-09-17T00:02:22.722Z,8.10
2018-09-17T00:03:29.020Z,7.22
2018-09-17T00:04:34.981Z,6.97
2018-09-17T00:05:41.200Z,6.90
2018-09-17T00:06:47.413Z,6.72
2018-09-17T00:07:53.674Z,7.15
2018-09-17T00:08:59.655Z,7.70
2018-09-17T00:10:05.008Z,7.30
2018-09-17T00:11:10.952Z,8.15
2018-09-17T00:12:16.937Z,6.75
2018-09-17T00:13:23.187Z,6.60
2018-09-17T00:14:29.652Z,6.43
2018-09-17T00:15:35.969Z,7.57
2018-09-17T00:16:42.726Z,7.70
2018-09-17T00:17:48.714Z,8.18
2018-09-17T00:18:54.956Z,6.40
2018-09-17T00:20:01.161Z,6.75
2018-09-17T00:21:07.401Z,6.75
2018-09-17T00:22:13.375Z,6.37
2018-09-17T00:23:19.333Z,6.82
2018-09-17T00:24:25.575Z,6.60
2018-09-17T00:25:31.806Z,6.82
2018-09-17T00:26:38.067Z,7.53
2018-09-17T00:27:44.361Z,7.60
2018-09-17T00:28:50.618Z,6.90
2018-09-17T00:29:56.888Z,7.97
2018-09-17T00:31:03.103Z,7.07
2018-09-17T00:32:09.361Z,6.60
2018-09-17T00:33:15.615Z,6.57
2018-09-17T00:34:21.850Z,7.03
2018-09-17T00:35:28.096Z,7.65
2018-09-17T00:36:34.321Z,6.85
2018-09-17T00:37:40.588Z,6.40
2018-09-17T00:38:46.827Z,6.65
2018-09-17T00:39:53.069Z,6.65
2018-09-17T00:40:59.290Z,6.80
2018-09-17T00:42:05.496Z,6.35
2018-09-17T00:43:11.774Z,6.65
2018-09-17T00:44:18.017Z,6.10
2018-09-17T00:45:24.296Z,6.72
2018-09-17T00:46:30.528Z,6.82
2018-09-17T00:47:36.785Z,7.10
2018-09-17T00:48:43.001Z,6.72
2018-09-17T00:49:49.224Z,6.65
2018-09-17T00:50:55.169Z,6.75
2018-09-17T00:52:01.484Z,5.78
2018-09-17T00:53:07.796Z,6.37
2018-09-17T00:54:14.069Z,5.62
2018-09-17T00:55:20.291Z,6.12
2018-09-17T00:56:26.552Z,6.85
2018-09-17T00:57:32.847Z,6.50
2018-09-17T00:58:39.122Z,6.40
2018-09-17T00:59:45.356Z,6.07
2018-09-17T01:00:51.392Z,7.35
2018-09-17T01:01:55.993Z,6.30
2018-09-17T01:03:01.973Z,7.55
2018-09-17T01:04:08.198Z,6.55
2018-09-17T01:05:14.428Z,5.75
2018-09-17T01:06:20.787Z,6.70
2018-09-17T01:07:26.734Z,6.00
2018-09-17T01:08:32.982Z,6.55
2018-09-17T01:09:38.700Z,5.72
2018-09-17T01:10:44.941Z,6.72
2018-09-17T01:11:51.837Z,6.32
2018-09-17T01:12:57.804Z,5.97
2018-09-17T01:14:04.056Z,6.28
2018-09-17T01:15:10.309Z,6.53
2018-09-17T01:16:16.524Z,6.60
2018-09-17T01:17:22.515Z,6.12
2018-09-17T01:18:28.771Z,5.95
2018-09-17T01:19:34.710Z,6.12
2018-09-17T01:20:40.961Z,5.45
2018-09-17T01:21:47.201Z,6.22
2018-09-17T01:22:53.224Z,5.62
2018-09-17T01:23:59.449Z,6.30
2018-09-17T01:25:05.344Z,6.15
2018-09-17T01:26:11.621Z,7.22
2018-09-17T01:27:17.911Z,6.37
2018-09-17T01:28:24.149Z,6.43
2018-09-17T01:29:30.384Z,6.28
2018-09-17T01:30:37.269Z,5.68
2018-09-17T01:31:43.642Z,5.90
2018-09-17T01:32:49.896Z,6.90
2018-09-17T01:33:56.158Z,5.95
2018-09-17T01:35:02.453Z,6.75
2018-09-17T01:36:08.676Z,6.12
2018-09-17T01:37:14.288Z,5.70
2018-09-17T01:38:20.337Z,6.55
2018-09-17T01:39:26.805Z,7.00
2018-09-17T01:40:33.060Z,6.80
2018-09-17T01:41:39.041Z,6.78
2018-09-17T01:42:45.037Z,6.60
2018-09-17T01:43:51.302Z,6.35
2018-09-17T01:44:57.523Z,6.70
2018-09-17T01:46:03.578Z,7.20
2018-09-17T01:47:09.975Z,6.72
2018-09-17T01:48:16.290Z,7.47
2018-09-17T01:49:22.557Z,7.00
2018-09-17T01:50:28.795Z,6.85
2018-09-17T01:51:34.667Z,7.03
2018-09-17T01:52:40.630Z,7.22
2018-09-17T01:53:46.888Z,7.60
2018-09-17T01:54:53.117Z,7.32
2018-09-17T01:55:59.324Z,7.53
2018-09-17T01:57:04.952Z,6.95
2018-09-17T01:58:11.216Z,5.87
2018-09-17T01:59:17.259Z,6.28
2018-09-17T02:00:23.150Z,6.80
2018-09-17T02:01:29.383Z,6.20
2018-09-17T02:02:35.613Z,5.87
2018-09-17T02:03:41.869Z,6.50
2018-09-17T02:04:48.117Z,6.50
2018-09-17T02:05:54.348Z,6.80
2018-09-17T02:07:00.593Z,6.05
2018-09-17T02:08:06.906Z,6.45
2018-09-17T02:09:13.350Z,6.18
2018-09-17T02:10:20.718Z,6.30
2018-09-17T02:11:26.984Z,6.60
2018-09-17T02:12:32.900Z,7.05
2018-09-17T02:13:38.921Z,6.75
2018-09-17T02:14:44.900Z,6.70
2018-09-17T02:15:50.833Z,6.37
2018-09-17T02:16:57.050Z,6.43
2018-09-17T02:18:03.314Z,7.03
2018-09-17T02:19:09.580Z,6.72
2018-09-17T02:20:15.811Z,5.62
2018-09-17T02:21:21.821Z,5.90
2018-09-17T02:22:28.030Z,6.25
2018-09-17T02:23:34.266Z,5.87
2018-09-17T02:24:40.296Z,6.85
2018-09-17T02:25:46.539Z,6.35
2018-09-17T02:26:52.776Z,6.30
2018-09-17T02:27:59.012Z,5.43
2018-09-17T02:29:04.565Z,5.80
2018-09-17T02:30:10.156Z,6.32
2018-09-17T02:31:16.136Z,5.85
2018-09-17T02:32:22.422Z,6.85
2018-09-17T02:33:28.661Z,5.55
2018-09-17T02:34:34.919Z,5.93
2018-09-17T02:35:41.153Z,7.05
2018-09-17T02:36:47.132Z,6.00
2018-09-17T02:37:53.414Z,6.55
2018-09-17T02:38:59.659Z,6.00
2018-09-17T02:40:05.043Z,5.97
2018-09-17T02:41:11.051Z,6.65
2018-09-17T02:42:17.008Z,7.40
2018-09-17T02:43:23.236Z,7.25
2018-09-17T02:44:29.224Z,7.10
2018-09-17T02:45:36.528Z,6.82
2018-09-17T02:46:42.767Z,6.20
2018-09-17T02:47:48.978Z,7.10
2018-09-17T02:48:55.179Z,7.03
2018-09-17T02:50:01.431Z,6.78
2018-09-17T02:51:07.668Z,7.50
2018-09-17T02:52:13.900Z,7.47
2018-09-17T02:53:20.145Z,7.93
2018-09-17T02:54:26.412Z,7.70
2018-09-17T02:55:32.657Z,7.25
2018-09-17T02:56:38.640Z,6.60
2018-09-17T02:57:44.899Z,7.70
2018-09-17T02:58:51.132Z,6.85
2018-09-17T02:59:57.387Z,5.82
2018-09-17T03:01:03.657Z,5.97
2018-09-17T03:02:09.868Z,6.68
2018-09-17T03:03:16.147Z,6.50
2018-09-17T03:04:22.406Z,6.10
2018-09-17T03:05:28.409Z,6.40
2018-09-17T03:06:34.656Z,7.40
2018-09-17T03:07:40.881Z,6.80
2018-09-17T03:08:47.121Z,6.75
2018-09-17T03:09:53.370Z,6.32
2018-09-17T03:10:59.649Z,7.15
2018-09-17T03:12:05.589Z,7.35
2018-09-17T03:13:11.821Z,7.03
2018-09-17T03:14:17.431Z,7.62
2018-09-17T03:15:34.524Z,6.68
2018-09-17T03:16:39.814Z,7.15
2018-09-17T03:17:45.806Z,7.20
2018-09-17T03:18:51.684Z,7.32
2018-09-17T03:19:57.933Z,8.00
2018-09-17T03:21:03.874Z,6.60
2018-09-17T03:22:09.464Z,7.95
2018-09-17T03:23:15.435Z,7.10
2018-09-17T03:24:21.773Z,7.70
2018-09-17T03:25:28.158Z,6.30
2018-09-17T03:26:34.097Z,7.15
2018-09-17T03:27:40.033Z,6.65
2018-09-17T03:28:46.290Z,7.78
2018-09-17T03:29:52.588Z,6.93
2018-09-17T03:30:58.846Z,7.95
2018-09-17T03:32:04.782Z,8.02
2018-09-17T03:33:10.998Z,7.62
2018-09-17T03:34:16.937Z,8.63
2018-09-17T03:35:22.558Z,8.45
2018-09-17T03:36:28.444Z,7.72
2018-09-17T03:37:34.329Z,8.13
2018-09-17T03:38:40.230Z,7.85
2018-09-17T03:39:46.495Z,9.48
2018-09-17T03:40:52.494Z,8.85
2018-09-17T03:41:58.731Z,7.97
2018-09-17T03:43:04.969Z,8.25
2018-09-17T03:44:11.237Z,7.35
2018-09-17T03:45:17.498Z,7.93
2018-09-17T03:46:23.736Z,7.62
2018-09-17T03:47:30.040Z,7.18
2018-09-17T03:48:36.297Z,8.15
2018-09-17T03:49:42.533Z,7.43
2018-09-17T03:50:48.788Z,7.82
2018-09-17T03:51:55.036Z,8.80
2018-09-17T03:53:01.254Z,7.60
2018-09-17T03:54:06.828Z,8.00
2018-09-17T03:55:13.077Z,7.75
2018-09-17T03:56:19.313Z,6.85
2018-09-17T03:57:25.544Z,7.00
2018-09-17T03:58:31.901Z,6.60
2018-09-17T03:59:38.126Z,7.20
2018-09-17T04:00:44.369Z,7.00
2018-09-17T04:01:50.625Z,6.45
2018-09-17T04:02:56.825Z,6.62
2018-09-17T04:04:02.741Z,7.05
2018-09-17T04:05:08.631Z,6.53
2018-09-17T04:06:14.908Z,6.65
2018-09-17T04:07:21.189Z,7.10
2018-09-17T04:08:27.349Z,7.40
2018-09-17T04:09:33.554Z,6.90
2018-09-17T04:10:39.850Z,6.53
2018-09-17T04:11:46.079Z,6.80
2018-09-17T04:12:52.273Z,6.55
2018-09-17T04:13:58.485Z,8.35
2018-09-17T04:15:04.331Z,7.07
2018-09-17T04:16:10.592Z,7.60
2018-09-17T04:17:16.817Z,6.70
2018-09-17T04:18:24.066Z,6.18
2018-09-17T04:19:30.294Z,6.60
2018-09-17T04:20:36.540Z,7.62
2018-09-17T04:21:42.748Z,6.65
2018-09-17T04:22:48.953Z,5.78
2018-09-17T04:23:55.190Z,7.32
2018-09-17T04:25:01.100Z,7.37
2018-09-17T04:26:07.052Z,7.45
2018-09-17T04:27:13.261Z,7.35
2018-09-17T04:28:19.473Z,6.55
2018-09-17T04:29:25.443Z,6.82
2018-09-17T04:30:31.908Z,6.53
2018-09-17T04:31:37.914Z,6.03
2018-09-17T04:32:44.355Z,6.43
2018-09-17T04:33:49.924Z,6.62
2018-09-17T04:34:56.141Z,6.25
2018-09-17T04:36:02.398Z,6.40
2018-09-17T04:37:08.720Z,6.87
2018-09-17T04:38:15.949Z,6.85
2018-09-17T04:39:22.000Z,7.05
2018-09-17T04:40:28.392Z,5.72
2018-09-17T04:41:34.543Z,6.68
2018-09-17T04:42:40.501Z,7.10
2018-09-17T04:43:47.094Z,6.05
2018-09-17T04:44:54.267Z,7.53
2018-09-17T04:46:01.546Z,6.62
2018-09-17T04:47:08.654Z,7.10
2018-09-17T04:48:14.615Z,7.25
2018-09-17T04:49:20.896Z,7.45
2018-09-17T04:50:27.113Z,9.00
2018-09-17T04:51:33.345Z,7.90
2018-09-17T04:52:39.304Z,8.27
2018-09-17T04:53:45.380Z,7.97
2018-09-17T04:54:52.662Z,8.32
2018-09-17T04:55:58.942Z,7.32
2018-09-17T04:57:04.917Z,6.78
2018-09-17T04:58:12.040Z,6.90
2018-09-17T04:59:17.980Z,7.40
2018-09-17T05:00:24.199Z,7.80
2018-09-17T05:01:30.422Z,7.85
2018-09-17T05:02:36.640Z,7.65
2018-09-17T05:03:42.866Z,7.37
2018-09-17T05:04:49.990Z,7.00
2018-09-17T05:05:57.196Z,7.80
2018-09-17T05:07:03.438Z,7.15
2018-09-17T05:08:09.662Z,8.32
2018-09-17T05:09:15.897Z,7.57
2018-09-17T05:10:22.095Z,8.27
2018-09-17T05:11:29.262Z,7.75
2018-09-17T05:12:36.133Z,8.18
2018-09-17T05:13:42.325Z,8.68
2018-09-17T05:14:48.319Z,8.40
2018-09-17T05:15:54.268Z,7.72
2018-09-17T05:17:00.508Z,8.23
2018-09-17T05:18:07.644Z,8.32
2018-09-17T05:19:14.800Z,8.32
2018-09-17T05:20:21.957Z,7.70
2018-09-17T05:21:29.104Z,9.80
2018-09-17T05:22:35.333Z,10.10
2018-09-17T05:23:41.572Z,9.10
2018-09-17T05:24:47.823Z,9.00
2018-09-17T05:25:54.048Z,9.70
2018-09-17T05:27:00.290Z,9.23
2018-09-17T05:28:06.524Z,8.40
2018-09-17T05:29:12.811Z,9.23
2018-09-17T05:30:19.052Z,8.52
2018-09-17T05:31:25.316Z,9.35
2018-09-17T05:32:31.640Z,9.50
2018-09-17T05:33:37.869Z,8.98
2018-09-17T05:34:44.085Z,9.30
2018-09-17T05:35:50.337Z,8.35
2018-09-17T05:36:57.461Z,8.10
2018-09-17T05:38:04.330Z,8.65
2018-09-17T05:39:09.916Z,8.50
2018-09-17T05:40:16.835Z,7.97
2018-09-17T05:41:23.831Z,8.57
2018-09-17T05:42:30.220Z,7.68
2018-09-17T05:43:36.222Z,9.05
2018-09-17T05:44:42.200Z,7.82
2018-09-17T05:45:48.513Z,9.15
2018-09-17T05:46:54.958Z,7.55
2018-09-17T05:48:01.177Z,8.40
2018-09-17T05:49:07.410Z,8.90
2018-09-17T05:50:13.740Z,8.40
2018-09-17T05:51:19.697Z,8.43
2018-09-17T05:52:25.669Z,7.95
2018-09-17T05:53:31.623Z,8.43
2018-09-17T05:54:38.451Z,8.63
2018-09-17T05:55:44.688Z,9.55
2018-09-17T05:56:50.972Z,8.88
2018-09-17T05:57:56.940Z,8.45
2018-09-17T05:59:02.926Z,9.07
2018-09-17T06:00:09.532Z,8.05
2018-09-17T06:01:15.762Z,8.70
2018-09-17T06:02:21.766Z,9.15
2018-09-17T06:03:27.765Z,8.98
2018-09-17T06:04:33.709Z,8.93
2018-09-17T06:05:40.017Z,9.77
2018-09-17T06:06:46.191Z,9.40
2018-09-17T06:07:53.307Z,8.50
2018-09-17T06:08:59.530Z,8.80
2018-09-17T06:10:04.891Z,8.50
2018-09-17T06:11:11.130Z,9.13
2018-09-17T06:12:18.026Z,8.70
2018-09-17T06:13:23.996Z,8.38
2018-09-17T06:14:29.974Z,9.43
2018-09-17T06:15:35.938Z,8.57
2018-09-17T06:16:41.894Z,9.05
2018-09-17T06:17:48.198Z,9.20
2018-09-17T06:18:54.417Z,8.60
2018-09-17T06:20:00.693Z,9.13
2018-09-17T06:21:07.305Z,8.85
2018-09-17T06:22:13.281Z,9.05
2018-09-17T06:23:19.357Z,9.27
2018-09-17T06:24:25.508Z,8.52
2018-09-17T06:25:31.765Z,8.40
2018-09-17T06:26:38.023Z,9.23
2018-09-17T06:27:44.440Z,9.05
2018-09-17T06:28:50.483Z,8.50
2018-09-17T06:29:56.897Z,8.27
2018-09-17T06:31:03.610Z,8.30
2018-09-17T06:32:10.522Z,8.60
2018-09-17T06:33:16.875Z,7.57
2018-09-17T06:34:23.014Z,9.45
2018-09-17T06:35:29.203Z,7.90
2018-09-17T06:36:35.285Z,8.10
2018-09-17T06:37:41.875Z,8.32
2018-09-17T06:38:48.301Z,8.25
2018-09-17T06:39:54.578Z,6.80
2018-09-17T06:41:00.520Z,8.13
2018-09-17T06:42:06.686Z,6.97
2018-09-17T06:43:12.989Z,6.45
2018-09-17T06:44:19.245Z,7.55
2018-09-17T06:45:24.897Z,7.15
2018-09-17T06:46:30.858Z,7.55
2018-09-17T06:47:36.824Z,7.55
2018-09-17T06:48:42.766Z,6.70
2018-09-17T06:49:48.751Z,6.95
2018-09-17T06:50:54.735Z,6.90
2018-09-17T06:52:00.972Z,6.60
2018-09-17T06:53:06.920Z,6.10
2018-09-17T06:54:13.164Z,6.15
2018-09-17T06:55:19.335Z,6.72
2018-09-17T06:56:25.426Z,6.47
2018-09-17T06:57:31.741Z,6.62
2018-09-17T06:58:38.041Z,6.95
2018-09-17T06:59:44.208Z,5.50
2018-09-17T07:00:50.567Z,6.75
2018-09-17T07:01:56.684Z,6.47
2018-09-17T07:03:02.818Z,5.90
2018-09-17T07:04:08.998Z,6.18
2018-09-17T07:05:16.022Z,6.43
2018-09-17T07:06:22.425Z,6.47
2018-09-17T07:07:29.047Z,6.57
2018-09-17T07:08:35.552Z,7.05
2018-09-17T07:09:41.889Z,5.82
2018-09-17T07:10:48.036Z,8.43
2018-09-17T07:11:53.828Z,7.93
2018-09-17T07:13:00.572Z,7.45
2018-09-17T07:14:07.077Z,7.87
2018-09-17T07:15:13.417Z,6.72
2018-09-17T07:16:19.893Z,7.10
2018-09-17T07:17:26.373Z,6.90
2018-09-17T07:18:32.479Z,6.20
2018-09-17T07:19:39.715Z,6.68
2018-09-17T07:20:46.298Z,6.80
2018-09-17T07:21:52.532Z,5.90
2018-09-17T07:22:58.498Z,5.60
2018-09-17T07:24:04.594Z,6.18
2018-09-17T07:25:11.001Z,6.18
2018-09-17T07:26:17.094Z,5.75
2018-09-17T07:27:23.497Z,6.28
2018-09-17T07:28:29.777Z,5.90
2018-09-17T07:29:36.110Z,6.55
2018-09-17T07:30:42.465Z,6.30
2018-09-17T07:31:48.528Z,5.82
2018-09-17T07:32:55.272Z,4.97
2018-09-17T07:34:01.222Z,5.97
2018-09-17T07:35:07.470Z,5.25
2018-09-17T07:36:13.531Z,6.45
2018-09-17T07:37:19.629Z,5.70
2018-09-17T07:38:25.614Z,5.50
2018-09-17T07:39:31.853Z,5.60
2018-09-17T07:40:37.790Z,5.65
2018-09-17T07:41:43.794Z,5.37
2018-09-17T07:42:50.006Z,5.62
2018-09-17T07:43:55.992Z,5.43
2018-09-17T07:45:02.242Z,4.97
2018-09-17T07:46:08.213Z,5.50
2018-09-17T07:47:14.200Z,5.30
2018-09-17T07:48:20.161Z,5.30
2018-09-17T07:49:26.256Z,4.28
2018-09-17T07:50:32.370Z,4.85
2018-09-17T07:51:38.807Z,4.85
2018-09-17T07:52:45.069Z,4.68
2018-09-17T07:53:51.698Z,4.60
2018-09-17T07:54:57.652Z,4.40
2018-09-17T07:56:03.602Z,4.25
2018-09-17T07:57:09.854Z,4.30
2018-09-17T07:58:15.786Z,4.53
2018-09-17T07:59:22.022Z,4.25
2018-09-17T08:00:28.090Z,4.55
2018-09-17T08:01:34.345Z,4.20
2018-09-17T08:02:40.728Z,4.07
2018-09-17T08:03:46.868Z,4.00
2018-09-17T08:04:53.210Z,4.47
2018-09-17T08:05:59.253Z,4.15
2018-09-17T08:07:05.143Z,4.00
2018-09-17T08:08:11.291Z,4.20
2018-09-17T08:09:18.618Z,3.85
2018-09-17T08:10:25.048Z,3.60
2018-09-17T08:11:31.166Z,3.42
2018-09-17T08:12:38.426Z,3.92
2018-09-17T08:13:44.543Z,3.92
2018-09-17T08:14:50.628Z,3.55
2018-09-17T08:15:56.573Z,4.22
2018-09-17T08:17:02.323Z,3.85
2018-09-17T08:18:08.742Z,4.07
2018-09-17T08:19:14.973Z,4.18
2018-09-17T08:20:21.237Z,3.75
2018-09-17T08:21:27.488Z,3.80
2018-09-17T08:22:33.711Z,3.40
2018-09-17T08:23:39.937Z,3.30
2018-09-17T08:24:45.932Z,3.33
2018-09-17T08:25:52.157Z,2.97
2018-09-17T08:26:58.395Z,3.65
2018-09-17T08:28:04.270Z,2.92
2018-09-17T08:29:10.501Z,3.40
2018-09-17T08:30:16.770Z,3.35
2018-09-17T08:31:23.098Z,2.92
2018-09-17T08:32:29.524Z,2.60
2018-09-17T08:33:35.552Z,2.72
2018-09-17T08:34:41.524Z,2.62
2018-09-17T08:35:47.482Z,2.72
2018-09-17T08:36:54.865Z,2.78
2018-09-17T08:38:01.081Z,2.65
2018-09-17T08:39:06.345Z,2.65
2018-09-17T08:40:12.618Z,2.87
2018-09-17T08:41:18.662Z,3.35
2018-09-17T08:42:24.899Z,3.12
2018-09-17T08:43:31.169Z,2.87
2018-09-17T08:44:37.420Z,2.85
2018-09-17T08:45:43.705Z,3.20
2018-09-17T08:46:50.102Z,2.30
2018-09-17T08:47:56.330Z,2.90
2018-09-17T08:49:02.285Z,2.83
2018-09-17T08:50:07.932Z,2.78
2018-09-17T08:51:13.654Z,2.42
2018-09-17T08:52:19.981Z,2.30
2018-09-17T08:53:26.368Z,2.30
2018-09-17T08:54:33.279Z,2.80
2018-09-17T08:55:39.300Z,2.75
2018-09-17T08:56:45.248Z,2.60
2018-09-17T08:57:50.973Z,2.95
2018-09-17T08:58:56.688Z,2.45
2018-09-17T09:00:02.356Z,2.62
2018-09-17T09:01:08.382Z,2.87
2018-09-17T09:02:14.400Z,2.65
2018-09-17T09:03:20.149Z,2.85
2018-09-17T09:04:27.278Z,2.70
2018-09-17T09:05:33.312Z,2.80
2018-09-17T09:06:39.053Z,2.20
2018-09-17T09:07:44.779Z,2.70
2018-09-17T09:08:51.703Z,2.45
2018-09-17T09:09:57.748Z,2.80
2018-09-17T09:11:03.403Z,2.25
2018-09-17T09:12:09.596Z,2.42
2018-09-17T09:13:15.583Z,2.40
2018-09-17T09:14:21.609Z,2.37
2018-09-17T09:15:27.364Z,2.42
2018-09-17T09:16:33.308Z,2.20
2018-09-17T09:17:39.231Z,2.50
2018-09-17T09:18:45.475Z,2.50
2018-09-17T09:19:51.701Z,2.15
2018-09-17T09:20:57.958Z,2.95
2018-09-17T09:22:04.271Z,2.12
2018-09-17T09:23:10.551Z,2.12
2018-09-17T09:24:16.792Z,2.10
2018-09-17T09:25:23.053Z,2.35
2018-09-17T09:26:29.018Z,2.30
2018-09-17T09:27:35.266Z,2.55
2018-09-17T09:28:41.238Z,2.05
2018-09-17T09:29:47.234Z,2.20
2018-09-17T09:30:53.195Z,2.58
2018-09-17T09:31:59.175Z,2.28
2018-09-17T09:33:05.154Z,2.45
2018-09-17T09:34:12.043Z,2.22
2018-09-17T09:35:18.024Z,2.05
2018-09-17T09:36:24.963Z,2.10
2018-09-17T09:37:31.858Z,2.35
2018-09-17T09:38:38.134Z,2.17
2018-09-17T09:39:44.347Z,2.50
2018-09-17T09:40:50.646Z,2.22
2018-09-17T09:41:56.879Z,2.42
2018-09-17T09:43:02.894Z,2.50
2018-09-17T09:44:09.821Z,2.10
2018-09-17T09:45:15.800Z,2.25
2018-09-17T09:46:22.109Z,2.37
2018-09-17T09:47:28.328Z,2.15
2018-09-17T09:48:34.569Z,2.30
2018-09-17T09:49:40.813Z,2.17
2018-09-17T09:50:47.077Z,2.00
2018-09-17T09:51:53.319Z,2.33
2018-09-17T09:52:59.321Z,2.15
2018-09-17T09:54:05.225Z,2.10
2018-09-17T09:55:11.465Z,2.40
2018-09-17T09:56:17.722Z,2.10
2018-09-17T09:57:24.863Z,2.17
2018-09-17T09:58:31.117Z,2.53
2018-09-17T09:59:37.380Z,2.30
2018-09-17T10:00:43.624Z,2.45
2018-09-17T10:01:49.363Z,2.40
2018-09-17T10:02:55.102Z,2.60
2018-09-17T10:04:01.211Z,2.40
2018-09-17T10:05:06.968Z,2.50
2018-09-17T10:06:12.962Z,2.03
2018-09-17T10:07:19.232Z,2.75
2018-09-17T10:08:25.465Z,2.40
2018-09-17T10:09:32.400Z,2.15
2018-09-17T10:10:44.247Z,2.20
2018-09-17T10:13:39.764Z,2.20
2018-09-17T10:15:13.632Z,2.20
2018-09-17T10:16:32.900Z,2.40
2018-09-17T10:17:38.891Z,2.20
2018-09-17T10:20:17.172Z,2.17
2018-09-17T10:21:23.169Z,2.50
2018-09-17T10:22:29.136Z,2.53
2018-09-17T10:23:35.117Z,2.70
2018-09-17T10:24:41.371Z,1.90
2018-09-17T10:25:47.591Z,2.37
2018-09-17T10:26:53.856Z,1.90
2018-09-17T10:27:59.792Z,2.40
2018-09-17T10:29:05.741Z,2.72
2018-09-17T10:30:11.616Z,2.03
2018-09-17T10:31:17.873Z,1.90
2018-09-17T10:32:24.123Z,2.28
2018-09-17T10:33:30.393Z,2.90
2018-09-17T10:34:36.624Z,2.45
2018-09-17T10:35:42.604Z,2.55
2018-09-17T10:36:48.882Z,2.35
2018-09-17T10:37:55.136Z,2.25
2018-09-17T10:39:01.373Z,2.33
2018-09-17T10:40:06.625Z,2.70
2018-09-17T10:41:12.582Z,2.17
2018-09-17T10:42:18.870Z,1.87
2018-09-17T10:43:25.108Z,2.40
2018-09-17T10:44:31.080Z,2.33
2018-09-17T10:45:37.287Z,2.87
2018-09-17T10:46:43.558Z,2.30
2018-09-17T10:47:49.680Z,2.10
2018-09-17T10:48:56.529Z,2.10
2018-09-17T10:50:02.505Z,2.12
2018-09-17T10:51:08.461Z,2.55
2018-09-17T10:52:14.776Z,2.60
2018-09-17T10:53:20.740Z,1.95
2018-09-17T10:54:26.699Z,2.00
2018-09-17T10:55:32.961Z,2.45
2018-09-17T10:56:39.217Z,2.00
2018-09-17T10:57:45.485Z,2.67
2018-09-17T10:58:51.440Z,2.10
2018-09-17T10:59:57.387Z,2.15
2018-09-17T11:01:03.399Z,1.80
2018-09-17T11:02:09.368Z,2.37
2018-09-17T11:03:15.622Z,3.17
2018-09-17T11:04:21.918Z,2.35
2018-09-17T11:05:28.172Z,2.40
2018-09-17T11:06:33.828Z,2.57
2018-09-17T11:07:39.796Z,2.37
2018-09-17T11:08:45.741Z,2.20
2018-09-17T11:09:51.408Z,2.00
2018-09-17T11:10:57.070Z,2.00
2018-09-17T11:12:02.757Z,2.37
2018-09-17T11:13:08.697Z,2.47
2018-09-17T11:14:14.677Z,2.37
2018-09-17T11:15:20.969Z,2.20
2018-09-17T11:16:27.195Z,2.40
2018-09-17T11:17:33.190Z,2.57
2018-09-17T11:18:39.365Z,2.62
2018-09-17T11:19:45.063Z,2.50
2018-09-17T11:20:50.996Z,2.30
2018-09-17T11:21:56.678Z,2.10
2018-09-17T11:23:02.651Z,2.08
2018-09-17T11:24:08.605Z,2.50
2018-09-17T11:25:14.325Z,2.70
2018-09-17T11:26:21.392Z,2.77
2018-09-17T11:27:27.376Z,2.00
2018-09-17T11:28:33.350Z,2.37
2018-09-17T11:29:39.284Z,2.20
2018-09-17T11:30:44.986Z,2.83
2018-09-17T11:31:50.643Z,2.40
2018-09-17T11:32:56.605Z,2.50
2018-09-17T11:34:02.574Z,2.93
2018-09-17T11:35:08.226Z,2.23
2018-09-17T11:36:14.161Z,2.60
2018-09-17T11:37:20.131Z,2.70
2018-09-17T11:38:26.381Z,2.65
2018-09-17T11:39:31.741Z,2.10
2018-09-17T11:40:37.416Z,2.30
2018-09-17T11:41:43.059Z,2.53
2018-09-17T11:42:48.773Z,2.43
2018-09-17T11:43:54.739Z,2.75
2018-09-17T11:45:00.701Z,2.30
2018-09-17T11:46:06.890Z,2.60
2018-09-17T11:47:12.578Z,2.20
2018-09-17T11:48:18.267Z,2.60
2018-09-17T11:49:24.151Z,2.73
2018-09-17T11:50:29.771Z,2.40
2018-09-17T11:51:35.454Z,2.40
2018-09-17T11:52:41.161Z,2.33
2018-09-17T11:53:47.120Z,2.43
2018-09-17T11:54:52.782Z,2.70
2018-09-17T11:55:58.737Z,2.50
2018-09-17T11:57:04.695Z,2.60
2018-09-17T11:58:10.699Z,2.57
2018-09-17T11:59:16.693Z,2.20
2018-09-17T12:00:22.407Z,2.50
2018-09-17T12:01:28.137Z,2.40
2018-09-17T12:02:33.841Z,2.47
2018-09-17T12:03:39.570Z,3.13
2018-09-17T12:04:46.211Z,2.73
2018-09-17T12:05:51.947Z,2.50
2018-09-17T12:06:57.378Z,2.33
2018-09-17T12:08:02.819Z,2.20
2018-09-17T12:09:08.818Z,2.50
2018-09-17T12:10:15.598Z,2.37
2018-09-17T12:11:21.486Z,2.27
2018-09-17T12:12:27.384Z,2.60
2018-09-17T12:13:33.359Z,3.03
2018-09-17T12:14:39.293Z,2.53
2018-09-17T12:15:45.256Z,2.83
2018-09-17T12:16:51.192Z,2.80
2018-09-17T12:17:56.889Z,2.87
2018-09-17T12:19:03.138Z,3.17
2018-09-17T12:20:08.481Z,2.70
2018-09-17T12:21:14.148Z,2.57
2018-09-17T12:22:20.100Z,2.70
2018-09-17T12:23:26.077Z,2.60
2018-09-17T12:24:32.037Z,2.97
2018-09-17T12:25:37.975Z,2.50
2018-09-17T12:26:43.865Z,2.43
2018-09-17T12:27:49.825Z,2.27
2018-09-17T12:28:56.462Z,2.97
2018-09-17T12:30:02.425Z,2.63
2018-09-17T12:31:08.398Z,2.87
2018-09-17T12:32:14.350Z,2.57
2018-09-17T12:33:20.316Z,2.20
2018-09-17T12:34:26.287Z,2.60
2018-09-17T12:35:32.292Z,2.60
2018-09-17T12:36:38.225Z,2.80
2018-09-17T12:37:44.166Z,2.60
2018-09-17T12:38:50.140Z,3.20
2018-09-17T12:39:55.808Z,2.77
2018-09-17T12:41:01.491Z,2.90
2018-09-17T12:42:06.483Z,3.13
2018-09-17T12:43:12.144Z,2.60
2018-09-17T12:44:17.876Z,2.70
2018-09-17T12:45:23.860Z,2.70
2018-09-17T12:46:29.503Z,2.70
2018-09-17T12:47:35.148Z,3.03
2018-09-17T12:48:40.811Z,2.70
2018-09-17T12:49:46.462Z,2.77
2018-09-17T12:50:52.428Z,3.40
2018-09-17T12:51:58.359Z,3.00
2018-09-17T12:53:04.039Z,2.97
2018-09-17T12:54:09.759Z,2.30
2018-09-17T12:55:15.340Z,2.30
2018-09-17T12:56:21.274Z,2.50
2018-09-17T12:57:27.197Z,2.87
2018-09-17T12:58:33.170Z,3.10
2018-09-17T12:59:38.849Z,2.80
2018-09-17T13:00:44.811Z,3.07
2018-09-17T13:01:50.475Z,2.60
2018-09-17T13:02:56.173Z,3.13
2018-09-17T13:04:01.883Z,2.60
2018-09-17T13:05:07.502Z,2.97
2018-09-17T13:06:13.442Z,2.83
2018-09-17T13:07:19.390Z,3.03
2018-09-17T13:08:25.346Z,2.80
2018-09-17T13:09:31.038Z,2.83
2018-09-17T13:10:36.704Z,3.10
2018-09-17T13:11:42.339Z,3.33
2018-09-17T13:12:48.299Z,2.70
2018-09-17T13:13:54.266Z,3.00
2018-09-17T13:14:59.937Z,2.87
2018-09-17T13:16:05.945Z,3.27
2018-09-17T13:17:11.633Z,2.77
2018-09-17T13:18:17.593Z,2.90
2018-09-17T13:19:23.275Z,3.20
2018-09-17T13:20:28.957Z,3.27
2018-09-17T13:21:34.612Z,3.27
2018-09-17T13:22:40.553Z,3.40
2018-09-17T13:23:46.487Z,3.20
2018-09-17T13:24:52.114Z,2.97
2018-09-17T13:25:58.338Z,3.07
2018-09-17T13:27:04.021Z,2.73
2018-09-17T13:28:09.980Z,3.03
2018-09-17T13:29:15.971Z,3.10
2018-09-17T13:30:21.896Z,3.07
2018-09-17T13:31:27.583Z,3.33
2018-09-17T13:32:33.264Z,3.50
2018-09-17T13:33:39.222Z,2.80
2018-09-17T13:34:44.921Z,2.87
2018-09-17T13:35:50.566Z,3.30
2018-09-17T13:36:56.291Z,2.90
2018-09-17T13:38:02.261Z,3.40
2018-09-17T13:39:07.590Z,2.90
2018-09-17T13:40:13.315Z,3.83
2018-09-17T13:41:19.322Z,3.00
2018-09-17T13:42:25.323Z,3.40
2018-09-17T13:43:31.176Z,3.17
2018-09-17T13:44:37.507Z,3.20
2018-09-17T13:45:43.582Z,2.80
2018-09-17T13:46:49.517Z,2.90
2018-09-17T13:47:55.729Z,3.20
2018-09-17T13:49:01.668Z,3.57
2018-09-17T13:50:07.524Z,3.03
2018-09-17T13:51:13.819Z,3.17
2018-09-17T13:52:19.819Z,3.20
2018-09-17T13:53:25.856Z,3.00
2018-09-17T13:54:31.641Z,3.07
2018-09-17T13:55:37.542Z,3.10
2018-09-17T13:56:43.193Z,2.90
2018-09-17T13:57:48.856Z,3.30
2018-09-17T13:58:54.471Z,3.23
2018-09-17T14:00:00.172Z,3.13
2018-09-17T14:01:06.306Z,2.77
2018-09-17T14:02:12.246Z,4.00
2018-09-17T14:03:17.972Z,3.40
2018-09-17T14:04:23.796Z,3.40
2018-09-17T14:05:29.621Z,2.90
2018-09-17T14:06:35.585Z,3.20
2018-09-17T14:07:41.263Z,3.03
2018-09-17T14:08:46.978Z,3.80
2018-09-17T14:09:52.719Z,3.40
2018-09-17T14:10:58.656Z,3.27
2018-09-17T14:12:04.606Z,3.37
2018-09-17T14:13:10.552Z,3.00
2018-09-17T14:14:16.261Z,3.00
2018-09-17T14:15:22.300Z,3.60
2018-09-17T14:16:27.965Z,3.20
2018-09-17T14:17:33.938Z,3.40
2018-09-17T14:18:39.884Z,3.57
2018-09-17T14:19:45.873Z,3.70
2018-09-17T14:20:51.864Z,3.57
2018-09-17T14:21:57.825Z,3.73
2018-09-17T14:23:03.771Z,3.40
2018-09-17T14:24:09.932Z,3.27
2018-09-17T14:25:15.306Z,3.00
2018-09-17T14:26:21.321Z,3.10
2018-09-17T14:27:27.194Z,3.60
2018-09-17T14:28:33.138Z,3.50
2018-09-17T14:29:38.821Z,3.10
2018-09-17T14:30:44.154Z,2.80
2018-09-17T14:31:50.101Z,3.50
2018-09-17T14:34:31.376Z,3.10
2018-09-17T14:35:37.276Z,3.00
2018-09-17T14:36:42.987Z,3.10
2018-09-17T14:37:48.923Z,3.13
2018-09-17T14:38:54.596Z,3.30
2018-09-17T14:40:00.488Z,3.53
2018-09-17T14:41:06.514Z,3.27
2018-09-17T14:42:12.456Z,3.23
2018-09-17T14:43:19.319Z,3.03
2018-09-17T14:44:24.969Z,2.83
2018-09-17T14:45:30.696Z,2.80